LIRP/PSA METAR and TAF weather

Enter ICAO airport designator
Station Type Date Time Source
LIRP METAR 2019/12/09 13:45 UTC NOAA

LIRP 091345Z 26010KT 9999 FEW020 SCT030 15/12 Q1007 NOSIG


Station Type Date Time Source
LIRP Decoded METAR 2019/12/09 13:45 UTC NOAA

Pisa / S. Giusto, Italy (LIRP) 43-41N 010-23E 6M
Dec 09, 2019 - 08:45 AM EST / 2019.12.09 1345 UTC
Wind: from the W (260 degrees) at 12 MPH (10 KT):0
Visibility: greater than 7 mile(s):0
Sky conditions: partly cloudy
Temperature: 59 F (15 C)
Dew Point: 53 F (12 C)
Relative Humidity: 82%
Pressure (altimeter): 29.74 in. Hg (1007 hPa)
ob: LIRP 091345Z 26010KT 9999 FEW020 SCT030 15/12 Q1007 NOSIG
cycle: 14

Station Type Date Time Source
LIRP TAF 2019/12/09 12:21 UTC NOAA

TAF TAF LIRP 091100Z 0912/1012 20010KT 9999 SCT010 BKN030
TEMPO 0912/0916 4000 RA BR PROB40
TEMPO 0912/0914 2000 SHRA BR FEW010CB BKN020
BECMG 0914/0916 09005KT 9999 SCT60
TEMPO 0922/1007 1500 MIFG

Example: see airport list